createdAt,value
2018-08-23T00:00:03.536Z,18.68
2018-08-23T00:02:32.917Z,19.10
2018-08-23T00:05:00.132Z,19.41
2018-08-23T00:07:27.285Z,19.08
2018-08-23T00:09:54.404Z,19.00
2018-08-23T00:12:26.993Z,19.11
2018-08-23T00:14:54.170Z,19.15
2018-08-23T00:17:21.268Z,17.88
2018-08-23T00:19:48.428Z,18.70
2018-08-23T00:22:21.282Z,18.54
2018-08-23T00:24:48.387Z,19.05
2018-08-23T00:27:20.098Z,19.23
2018-08-23T00:29:47.241Z,19.17
2018-08-23T00:32:21.164Z,19.22
2018-08-23T00:34:48.294Z,18.90
2018-08-23T00:37:15.420Z,18.76
2018-08-23T00:39:42.585Z,18.38
2018-08-23T00:42:11.195Z,18.38
2018-08-23T00:44:57.264Z,18.53
2018-08-23T00:47:30.381Z,18.74
2018-08-23T00:49:57.549Z,18.89
2018-08-23T00:52:44.561Z,18.91
2018-08-23T00:55:31.200Z,18.14
2018-08-23T00:57:58.492Z,18.44
2018-08-23T01:00:27.578Z,18.64
2018-08-23T01:03:00.600Z,18.65
2018-08-23T01:05:33.488Z,18.77
2018-08-23T01:08:00.623Z,18.29
2018-08-23T01:10:27.729Z,17.93
2018-08-23T01:12:57.072Z,18.25
2018-08-23T01:15:24.241Z,18.38
2018-08-23T01:18:04.305Z,18.48
2018-08-23T01:20:31.515Z,18.01
2018-08-23T01:23:00.632Z,17.37
2018-08-23T01:25:30.947Z,17.58
2018-08-23T01:27:58.065Z,17.70
2018-08-23T01:30:25.200Z,18.12
2018-08-23T01:32:52.355Z,17.98
2018-08-23T01:35:19.527Z,17.80
2018-08-23T01:37:46.689Z,17.79
2018-08-23T01:40:13.840Z,18.05
2018-08-23T01:42:41.628Z,17.84
2018-08-23T01:45:10.201Z,17.51
2018-08-23T01:48:11.000Z,17.72
2018-08-23T01:50:38.226Z,18.00
2018-08-23T01:53:05.460Z,18.30
2018-08-23T01:55:32.608Z,18.20
2018-08-23T01:57:59.812Z,18.29
2018-08-23T02:00:29.066Z,18.32
2018-08-23T02:02:56.186Z,18.19
2018-08-23T02:05:23.413Z,17.55
2018-08-23T02:07:50.591Z,17.62
2018-08-23T02:10:17.773Z,17.47
2018-08-23T02:12:52.916Z,17.26
2018-08-23T02:15:20.294Z,17.30
2018-08-23T02:17:52.823Z,17.04
2018-08-23T02:20:20.555Z,17.06
2018-08-23T02:22:47.724Z,17.42
2018-08-23T02:25:14.863Z,17.54
2018-08-23T02:27:56.668Z,17.75
2018-08-23T02:30:38.618Z,17.87
2018-08-23T02:33:05.789Z,17.71
2018-08-23T02:35:32.943Z,17.74
2018-08-23T02:38:00.127Z,16.79
2018-08-23T02:40:27.249Z,17.28
2018-08-23T02:42:54.384Z,17.16
2018-08-23T02:45:21.611Z,17.39
2018-08-23T02:47:48.748Z,17.22
2018-08-23T02:50:15.921Z,17.28
2018-08-23T02:52:43.072Z,17.39
2018-08-23T02:55:10.193Z,17.52
2018-08-23T02:57:41.908Z,17.22
2018-08-23T03:00:09.055Z,16.92
2018-08-23T03:02:36.300Z,17.25
2018-08-23T03:05:04.491Z,16.84
2018-08-23T03:07:31.648Z,16.98
2018-08-23T03:09:58.820Z,17.08
2018-08-23T03:12:25.966Z,17.11
2018-08-23T03:14:53.105Z,16.58
2018-08-23T03:17:22.500Z,16.41
2018-08-23T03:20:25.413Z,16.31
2018-08-23T03:22:54.746Z,16.76
2018-08-23T03:25:23.042Z,16.75
2018-08-23T03:27:51.836Z,16.88
2018-08-23T03:30:19.508Z,16.89
2018-08-23T03:32:46.631Z,17.02
2018-08-23T03:35:13.756Z,16.96
2018-08-23T03:37:40.905Z,17.04
2018-08-23T03:40:09.017Z,17.21
2018-08-23T03:42:36.140Z,16.88
2018-08-23T03:45:04.206Z,16.89
2018-08-23T03:47:38.494Z,16.98
2018-08-23T03:50:06.549Z,16.31
2018-08-23T03:52:37.674Z,16.29
2018-08-23T03:55:06.306Z,16.65
2018-08-23T03:57:39.062Z,16.78
2018-08-23T04:00:06.207Z,16.73
2018-08-23T04:02:33.397Z,16.55
2018-08-23T04:05:10.409Z,16.48
2018-08-23T04:07:38.613Z,16.68
2018-08-23T04:10:05.813Z,16.68
2018-08-23T04:12:34.769Z,16.50
2018-08-23T04:15:14.417Z,16.26
2018-08-23T04:17:41.528Z,16.18
2018-08-23T04:20:08.692Z,16.23
2018-08-23T04:22:35.821Z,16.03
2018-08-23T04:25:03.414Z,16.16
2018-08-23T04:27:30.573Z,16.29
2018-08-23T04:29:57.717Z,16.15
2018-08-23T04:32:30.576Z,15.50
2018-08-23T04:34:59.211Z,15.63
2018-08-23T04:37:26.808Z,16.03
2018-08-23T04:39:59.444Z,16.05
2018-08-23T04:42:26.616Z,15.94
2018-08-23T04:44:53.732Z,15.80
2018-08-23T04:47:21.620Z,15.87
2018-08-23T04:49:48.748Z,16.24
2018-08-23T04:52:15.921Z,16.40
2018-08-23T04:54:43.066Z,16.37
2018-08-23T04:57:10.349Z,16.64
2018-08-23T04:59:37.497Z,16.43
2018-08-23T05:02:04.845Z,16.50
2018-08-23T05:04:32.032Z,16.56
2018-08-23T05:06:59.169Z,16.84
2018-08-23T05:09:26.292Z,16.93
2018-08-23T05:11:53.476Z,17.09
2018-08-23T05:14:20.616Z,17.26
2018-08-23T05:16:47.733Z,17.40
2018-08-23T05:19:14.958Z,17.10
2018-08-23T05:21:42.089Z,17.34
2018-08-23T05:24:11.651Z,17.24
2018-08-23T05:26:38.891Z,17.46
2018-08-23T05:29:07.355Z,17.70
2018-08-23T05:31:34.581Z,17.76
2018-08-23T05:34:02.935Z,17.77
2018-08-23T05:36:30.237Z,17.56
2018-08-23T05:38:57.427Z,17.46
2018-08-23T05:41:24.568Z,17.62
2018-08-23T05:44:10.744Z,17.54
2018-08-23T05:46:40.663Z,17.96
2018-08-23T05:49:07.776Z,18.20
2018-08-23T05:51:38.952Z,18.27
2018-08-23T05:54:06.136Z,18.42
2018-08-23T05:56:33.332Z,18.57
2018-08-23T05:59:06.304Z,18.77
2018-08-23T06:01:33.516Z,18.88
2018-08-23T06:04:00.649Z,19.20
2018-08-23T06:06:28.384Z,19.18
2018-08-23T06:08:59.361Z,19.25
2018-08-23T06:11:26.529Z,19.14
2018-08-23T06:13:53.633Z,19.40
2018-08-23T06:16:20.737Z,19.28
2018-08-23T06:18:54.691Z,19.39
2018-08-23T06:21:21.862Z,19.44
2018-08-23T06:23:51.972Z,19.82
2018-08-23T06:26:19.963Z,19.94
2018-08-23T06:28:47.160Z,20.18
2018-08-23T06:31:14.289Z,20.60
2018-08-23T06:33:47.274Z,20.38
2018-08-23T06:36:14.286Z,20.58
2018-08-23T06:38:46.025Z,20.64
2018-08-23T06:41:13.105Z,20.75
2018-08-23T06:43:40.262Z,20.86
2018-08-23T06:46:07.471Z,21.01
2018-08-23T06:48:34.541Z,21.45
2018-08-23T06:51:02.691Z,21.66
2018-08-23T06:53:39.392Z,21.84
2018-08-23T06:56:06.546Z,22.00
2018-08-23T06:58:33.810Z,21.93
2018-08-23T07:01:03.356Z,21.79
2018-08-23T07:03:30.575Z,21.98
2018-08-23T07:05:57.768Z,22.36
2018-08-23T07:08:24.910Z,22.72
2018-08-23T07:11:00.268Z,22.90
2018-08-23T07:13:27.416Z,23.15
2018-08-23T07:15:59.069Z,23.09
2018-08-23T07:18:26.549Z,23.45
2018-08-23T07:20:53.655Z,23.62
2018-08-23T07:23:30.300Z,23.63
2018-08-23T07:25:57.441Z,23.69
2018-08-23T07:28:24.592Z,24.16
2018-08-23T07:30:53.108Z,24.74
2018-08-23T07:33:20.269Z,25.11
2018-08-23T07:35:53.276Z,25.12
2018-08-23T07:38:20.419Z,25.25
2018-08-23T07:40:47.608Z,25.13
2018-08-23T07:43:14.784Z,25.43
2018-08-23T07:45:41.950Z,25.62
2018-08-23T07:48:09.128Z,25.77
2018-08-23T07:50:36.316Z,25.80
2018-08-23T07:53:03.486Z,25.88
2018-08-23T07:55:30.636Z,25.93
2018-08-23T07:57:57.758Z,26.15
2018-08-23T08:00:25.680Z,26.49
2018-08-23T08:02:52.950Z,26.74
2018-08-23T08:05:20.141Z,27.04
2018-08-23T08:07:47.490Z,27.27
2018-08-23T08:10:21.468Z,27.26
2018-08-23T08:12:48.616Z,27.37
2018-08-23T08:15:15.936Z,27.28
2018-08-23T08:17:42.949Z,26.95
2018-08-23T08:20:10.413Z,27.18
2018-08-23T08:22:37.627Z,27.45
2018-08-23T08:25:19.873Z,27.57
2018-08-23T08:27:48.148Z,27.47
2018-08-23T08:30:16.772Z,27.80
2018-08-23T08:32:44.312Z,27.81
2018-08-23T08:35:15.380Z,27.98
2018-08-23T08:37:42.896Z,28.19
2018-08-23T08:40:18.714Z,28.43
2018-08-23T08:42:45.868Z,28.08
2018-08-23T08:45:13.376Z,28.16
2018-08-23T08:47:41.971Z,28.41
2018-08-23T08:50:09.179Z,28.69
2018-08-23T08:52:36.313Z,28.85
2018-08-23T08:55:05.788Z,28.74
2018-08-23T08:57:32.922Z,28.46
2018-08-23T09:00:00.698Z,28.54
2018-08-23T09:02:30.081Z,28.49
2018-08-23T09:04:57.168Z,28.59
2018-08-23T09:07:27.536Z,28.76
2018-08-23T09:09:54.678Z,29.29
2018-08-23T09:12:21.861Z,29.88
2018-08-23T09:14:49.029Z,29.86
2018-08-23T09:17:33.281Z,29.78
2018-08-23T09:20:06.293Z,29.99
2018-08-23T09:22:36.360Z,30.15
2018-08-23T09:25:05.572Z,30.02
2018-08-23T09:27:32.697Z,29.88
2018-08-23T09:29:59.832Z,29.87
2018-08-23T09:32:28.149Z,30.42
2018-08-23T09:34:57.295Z,30.39
2018-08-23T09:37:24.521Z,30.60
2018-08-23T09:39:51.693Z,30.67
2018-08-23T09:42:18.839Z,30.97
2018-08-23T09:44:59.181Z,30.85
2018-08-23T09:47:26.478Z,30.64
2018-08-23T09:49:53.596Z,30.61
2018-08-23T09:52:25.046Z,30.35
2018-08-23T09:54:52.136Z,30.35
2018-08-23T09:57:19.266Z,30.29
2018-08-23T09:59:50.978Z,30.60
2018-08-23T10:02:23.896Z,31.01
2018-08-23T10:04:55.082Z,31.38
2018-08-23T10:07:28.928Z,31.11
2018-08-23T10:10:01.770Z,31.32
2018-08-23T10:12:34.753Z,31.50
2018-08-23T10:15:07.765Z,31.62
2018-08-23T10:17:40.531Z,31.49
2018-08-23T10:20:13.492Z,31.38
2018-08-23T10:22:45.548Z,30.99
2018-08-23T10:25:30.226Z,30.94
2018-08-23T10:27:58.080Z,30.86
2018-08-23T10:30:25.769Z,31.08
2018-08-23T10:32:53.085Z,31.50
2018-08-23T10:35:20.262Z,31.43
2018-08-23T10:37:47.401Z,31.87
2018-08-23T10:40:14.618Z,32.32
2018-08-23T10:42:41.755Z,32.35
2018-08-23T10:45:08.876Z,32.38
2018-08-23T10:47:41.745Z,31.82
2018-08-23T10:50:08.920Z,31.44
2018-08-23T10:52:36.133Z,31.01
2018-08-23T10:55:03.856Z,31.00
2018-08-23T10:57:31.133Z,30.99
2018-08-23T10:59:58.473Z,30.71
2018-08-23T11:02:25.680Z,30.41
2018-08-23T11:04:52.829Z,30.50
2018-08-23T11:07:24.546Z,30.42
2018-08-23T11:09:57.521Z,30.20
2018-08-23T11:12:30.513Z,29.59
2018-08-23T11:15:03.247Z,29.02
2018-08-23T11:17:36.025Z,27.91
2018-08-23T11:20:09.385Z,26.43
2018-08-23T11:22:36.569Z,26.35
2018-08-23T11:25:04.304Z,26.56
2018-08-23T11:27:31.580Z,26.41
2018-08-23T11:29:58.775Z,26.27
2018-08-23T11:32:25.955Z,26.16
2018-08-23T11:34:53.104Z,25.87
2018-08-23T11:37:20.307Z,25.91
2018-08-23T11:39:47.424Z,26.09
2018-08-23T11:42:14.614Z,26.38
2018-08-23T11:44:41.772Z,26.69
2018-08-23T11:47:09.446Z,26.89
2018-08-23T11:49:37.133Z,26.00
2018-08-23T11:52:04.317Z,25.92
2018-08-23T11:54:40.024Z,25.77
2018-08-23T11:57:07.200Z,25.78
2018-08-23T11:59:34.348Z,26.13
2018-08-23T12:02:01.568Z,26.45
2018-08-23T12:04:28.730Z,26.75
2018-08-23T12:06:56.027Z,26.84
2018-08-23T12:09:38.473Z,26.70
2018-08-23T12:12:05.633Z,26.48
2018-08-23T12:14:32.813Z,26.58
2018-08-23T12:17:01.058Z,26.44
2018-08-23T12:19:28.195Z,26.11
2018-08-23T12:21:55.365Z,26.03
2018-08-23T12:24:22.551Z,26.10
2018-08-23T12:26:49.698Z,26.03
2018-08-23T12:29:16.864Z,25.97
2018-08-23T12:31:44.075Z,25.99
2018-08-23T12:34:12.288Z,25.81
2018-08-23T12:36:45.551Z,25.66
2018-08-23T12:39:18.661Z,25.44
2018-08-23T12:41:52.236Z,25.64
2018-08-23T12:44:23.753Z,25.75
2018-08-23T12:46:56.162Z,25.67
2018-08-23T12:49:23.352Z,25.71
2018-08-23T12:51:50.432Z,25.80
2018-08-23T12:54:17.652Z,25.68
2018-08-23T12:56:45.000Z,25.69
2018-08-23T12:59:12.956Z,25.76
2018-08-23T13:01:40.160Z,25.80
2018-08-23T13:04:07.379Z,25.80
2018-08-23T13:06:34.669Z,25.89
2018-08-23T13:09:01.886Z,25.93
2018-08-23T13:11:29.133Z,26.12
2018-08-23T13:13:56.316Z,26.26
2018-08-23T13:16:23.444Z,26.33
2018-08-23T13:18:52.294Z,26.31
2018-08-23T13:21:19.505Z,26.49
2018-08-23T13:23:53.604Z,26.69
2018-08-23T13:26:20.820Z,26.76
2018-08-23T13:28:48.036Z,26.81
2018-08-23T13:33:49.192Z,26.92
2018-08-23T13:36:16.558Z,27.09
2018-08-23T13:38:43.680Z,27.21
2018-08-23T13:41:10.836Z,27.08
2018-08-23T13:43:38.246Z,27.28
2018-08-23T13:46:05.472Z,27.57
2018-08-23T13:48:33.273Z,28.10
2018-08-23T13:51:00.659Z,28.54
2018-08-23T13:53:27.795Z,28.35
2018-08-23T13:55:54.970Z,28.09
2018-08-23T13:58:22.163Z,27.66
2018-08-23T14:00:49.366Z,27.37
2018-08-23T14:03:16.529Z,27.46
2018-08-23T14:05:43.729Z,26.99
2018-08-23T14:08:10.850Z,26.58
2018-08-23T14:10:38.000Z,27.22
2018-08-23T14:13:05.109Z,27.21
2018-08-23T14:15:38.012Z,26.90
2018-08-23T14:18:05.209Z,27.00
2018-08-23T14:20:32.419Z,26.65
2018-08-23T14:22:59.570Z,26.39
2018-08-23T14:25:26.727Z,26.85
2018-08-23T14:27:54.086Z,26.42
2018-08-23T14:30:21.513Z,26.58
2018-08-23T14:32:55.498Z,26.88
2018-08-23T14:35:22.600Z,27.15
2018-08-23T14:37:49.754Z,27.12
2018-08-23T14:40:16.973Z,27.56
2018-08-23T14:42:44.062Z,27.29
2018-08-23T14:45:11.174Z,27.37
2018-08-23T14:47:43.916Z,27.37
2018-08-23T14:50:11.165Z,27.55
2018-08-23T14:52:38.381Z,27.45
2018-08-23T14:55:05.614Z,27.58
2018-08-23T14:57:36.899Z,27.59
2018-08-23T15:00:04.621Z,27.28
2018-08-23T15:02:31.748Z,27.29
2018-08-23T15:04:58.894Z,27.17
2018-08-23T15:07:26.029Z,27.10
2018-08-23T15:09:53.166Z,27.10
2018-08-23T15:12:20.310Z,27.27
2018-08-23T15:14:47.470Z,27.36
2018-08-23T15:17:14.764Z,27.37
2018-08-23T15:19:41.926Z,27.28
2018-08-23T15:22:09.486Z,27.45
2018-08-23T15:24:36.686Z,27.50
2018-08-23T15:27:04.376Z,27.59
2018-08-23T15:29:31.380Z,27.44
2018-08-23T15:31:58.521Z,27.48
2018-08-23T15:34:25.655Z,27.77
2018-08-23T15:36:52.802Z,27.10
2018-08-23T15:39:20.051Z,26.68
2018-08-23T15:41:47.237Z,26.82
2018-08-23T15:44:14.405Z,26.76
2018-08-23T15:46:45.825Z,26.88
2018-08-23T15:49:13.368Z,26.58
2018-08-23T15:51:41.232Z,26.52
2018-08-23T15:54:08.824Z,26.53
2018-08-23T15:56:36.387Z,26.58
2018-08-23T15:59:03.629Z,26.68
2018-08-23T16:01:31.081Z,26.68
2018-08-23T16:03:58.268Z,26.95
2018-08-23T16:06:25.777Z,26.67
2018-08-23T16:08:53.013Z,26.60
2018-08-23T16:24:19.932Z,26.54
2018-08-23T16:27:04.064Z,26.44
2018-08-23T16:29:31.496Z,26.46
2018-08-23T16:31:58.769Z,26.49
2018-08-23T16:34:26.481Z,26.55
2018-08-23T16:36:53.706Z,26.60
2018-08-23T16:39:21.157Z,26.66
2018-08-23T16:41:48.312Z,26.58
2018-08-23T16:44:15.474Z,26.56
2018-08-23T16:46:42.746Z,26.43
2018-08-23T16:49:09.961Z,26.66
2018-08-23T16:51:37.144Z,26.98
2018-08-23T16:54:04.360Z,27.00
2018-08-23T16:56:31.609Z,26.98
2018-08-23T16:58:58.831Z,26.87
2018-08-23T17:01:26.017Z,26.87
2018-08-23T17:03:54.454Z,26.75
2018-08-23T17:06:22.793Z,26.69
2018-08-23T17:08:50.059Z,26.67
2018-08-23T17:11:17.247Z,26.62
2018-08-23T17:13:44.424Z,26.73
2018-08-23T17:16:17.438Z,26.68
2018-08-23T17:18:44.641Z,26.78
2018-08-23T17:21:11.801Z,26.65
2018-08-23T17:23:39.005Z,26.68
2018-08-23T17:26:06.167Z,26.75
2018-08-23T17:28:33.316Z,26.74
2018-08-23T17:31:01.028Z,26.56
2018-08-23T17:33:28.245Z,26.46
2018-08-23T17:35:55.420Z,26.44
2018-08-23T17:38:22.640Z,26.01
2018-08-23T17:40:49.741Z,25.91
2018-08-23T17:43:16.903Z,25.71
2018-08-23T17:45:44.441Z,25.62
2018-08-23T17:48:11.601Z,25.54
2018-08-23T17:50:38.766Z,25.58
2018-08-23T17:53:06.013Z,25.54
2018-08-23T17:55:33.389Z,25.52
2018-08-23T17:58:00.554Z,25.47
2018-08-23T18:00:27.797Z,25.46
2018-08-23T18:02:55.033Z,25.42
2018-08-23T18:05:22.345Z,25.27
2018-08-23T18:07:49.554Z,25.01
2018-08-23T18:10:16.757Z,25.00
2018-08-23T18:12:43.956Z,25.00
2018-08-23T18:15:11.110Z,24.96
2018-08-23T18:17:38.978Z,25.21
2018-08-23T18:20:06.434Z,25.35
2018-08-23T18:22:33.749Z,25.36
2018-08-23T18:25:01.014Z,25.07
2018-08-23T18:27:28.171Z,24.80
2018-08-23T18:29:55.385Z,24.67
2018-08-23T18:32:22.628Z,24.45
2018-08-23T18:34:49.908Z,24.23
2018-08-23T18:37:17.096Z,24.16
2018-08-23T18:39:44.329Z,24.02
2018-08-23T18:42:11.576Z,24.00
2018-08-23T18:44:38.924Z,23.96
2018-08-23T18:47:06.193Z,23.99
2018-08-23T18:49:33.415Z,23.83
2018-08-23T18:52:00.666Z,23.72
2018-08-23T18:54:27.940Z,23.59
2018-08-23T18:57:03.140Z,23.41
2018-08-23T18:59:33.550Z,23.37
2018-08-23T19:02:01.169Z,23.07
2018-08-23T19:04:28.310Z,22.75
2018-08-23T19:06:55.483Z,22.79
2018-08-23T19:09:22.821Z,23.03
2018-08-23T19:11:49.988Z,23.16
2018-08-23T19:14:17.204Z,23.03
2018-08-23T19:16:50.108Z,22.63
2018-08-23T19:19:17.525Z,22.49
2018-08-23T19:21:44.756Z,22.45
2018-08-23T19:24:14.077Z,22.45
2018-08-23T19:26:41.320Z,22.56
2018-08-23T19:29:08.558Z,22.40
2018-08-23T19:31:43.162Z,22.39
2018-08-23T19:34:10.321Z,22.47
2018-08-23T19:36:37.537Z,22.67
2018-08-23T19:39:08.380Z,22.64
2018-08-23T19:41:35.768Z,22.63
2018-08-23T19:44:03.037Z,22.37
2018-08-23T19:46:35.923Z,22.29
2018-08-23T19:49:08.865Z,22.35
2018-08-23T19:51:36.136Z,22.35
2018-08-23T19:54:03.326Z,22.36
2018-08-23T19:56:30.569Z,22.45
2018-08-23T19:58:57.865Z,21.87
2018-08-23T20:01:25.086Z,21.39
2018-08-23T20:03:52.254Z,21.16
2018-08-23T20:06:20.225Z,21.46
2018-08-23T20:08:47.451Z,21.58
2018-08-23T20:11:14.637Z,21.62
2018-08-23T20:13:41.805Z,21.27
2018-08-23T20:16:09.026Z,20.99
2018-08-23T20:18:36.275Z,20.89
2018-08-23T20:21:03.498Z,21.11
2018-08-23T20:23:30.663Z,21.27
2018-08-23T20:25:57.897Z,21.40
2018-08-23T20:28:25.173Z,21.49
2018-08-23T20:30:52.428Z,21.23
2018-08-23T20:33:19.723Z,21.12
2018-08-23T20:35:47.020Z,21.30
2018-08-23T20:38:15.099Z,21.27
2018-08-23T20:40:42.323Z,21.29
2018-08-23T20:43:09.628Z,21.13
2018-08-23T20:45:36.881Z,21.27
2018-08-23T20:48:04.056Z,21.41
2018-08-23T20:50:31.339Z,21.49
2018-08-23T20:52:58.532Z,21.49
2018-08-23T20:55:25.693Z,21.47
2018-08-23T20:57:52.920Z,21.60
2018-08-23T21:00:20.170Z,21.46
2018-08-23T21:02:47.396Z,21.15
2018-08-23T21:05:15.248Z,21.23
2018-08-23T21:07:42.545Z,21.13
2018-08-23T21:10:09.799Z,21.19
2018-08-23T21:12:37.082Z,21.07
2018-08-23T21:15:04.588Z,21.10
2018-08-23T21:17:31.867Z,21.20
2018-08-23T21:19:58.996Z,21.19
2018-08-23T21:22:26.172Z,21.18
2018-08-23T21:24:53.341Z,21.24
2018-08-23T21:27:20.649Z,21.26
2018-08-23T21:29:47.895Z,21.34
2018-08-23T21:32:15.120Z,21.40
2018-08-23T21:34:51.960Z,21.43
2018-08-23T21:37:20.522Z,21.45
2018-08-23T21:39:48.839Z,21.32
2018-08-23T21:42:16.396Z,20.98
2018-08-23T21:44:43.764Z,20.92
2018-08-23T21:47:11.035Z,21.15
2018-08-23T21:49:38.174Z,21.22
2018-08-23T21:52:05.476Z,21.35
2018-08-23T21:54:32.945Z,21.34
2018-08-23T21:57:00.162Z,21.29
2018-08-23T21:59:27.421Z,20.78
2018-08-23T22:02:00.335Z,20.73
2018-08-23T22:04:27.560Z,20.81
2018-08-23T22:06:54.792Z,20.98
2018-08-23T22:09:22.349Z,21.04
2018-08-23T22:11:49.608Z,21.15
2018-08-23T22:14:16.980Z,21.18
2018-08-23T22:16:44.166Z,20.94
2018-08-23T22:19:11.370Z,21.24
2018-08-23T22:21:38.736Z,21.26
2018-08-23T22:24:05.954Z,21.07
2018-08-23T22:26:33.626Z,21.19
2018-08-23T22:29:00.924Z,21.20
2018-08-23T22:31:28.160Z,21.26
2018-08-23T22:33:55.347Z,21.22
2018-08-23T22:36:22.515Z,21.14
2018-08-23T22:38:49.692Z,21.19
2018-08-23T22:41:17.005Z,21.27
2018-08-23T22:43:44.206Z,21.30
2018-08-23T22:46:11.417Z,21.17
2018-08-23T22:48:38.638Z,21.24
2018-08-23T22:51:05.823Z,21.16
2018-08-23T22:53:32.998Z,21.26
2018-08-23T22:56:00.320Z,21.19
2018-08-23T22:58:27.790Z,20.76
2018-08-23T23:00:55.381Z,20.76
2018-08-23T23:03:28.396Z,20.83
2018-08-23T23:05:55.570Z,20.91
2018-08-23T23:08:22.865Z,20.36
2018-08-23T23:10:50.017Z,20.56
2018-08-23T23:13:17.233Z,20.46
2018-08-23T23:15:44.432Z,20.26
2018-08-23T23:18:11.584Z,20.32
2018-08-23T23:20:38.722Z,20.27
2018-08-23T23:23:05.978Z,20.15
2018-08-23T23:25:33.176Z,20.17
2018-08-23T23:28:00.382Z,20.27
2018-08-23T23:30:27.589Z,20.03
2018-08-23T23:32:54.772Z,19.98
2018-08-23T23:35:21.981Z,19.64
2018-08-23T23:37:49.181Z,19.73
2018-08-23T23:40:16.392Z,20.03
2018-08-23T23:42:50.704Z,20.10
2018-08-23T23:45:17.828Z,20.01
2018-08-23T23:47:45.175Z,20.22
2018-08-23T23:50:12.497Z,20.27
2018-08-23T23:52:39.620Z,19.90
2018-08-23T23:55:06.799Z,19.86
2018-08-23T23:57:33.950Z,20.01
